Cut Bank, Montana
Current Conditions -  °F | °C
As of 6:56 AM on Wednesday 28 Jan 2015 (Local Time) from KCTB Reporting Station
Clear Clear  
Wind Chill: 21°   Ceiling: Unl
Heat Index: 30°   Visibility: 10mi
Dew Point: 24°   Wind: 12mph
Humidity: 79%   Direction: 350°N
Pressure: 30.1"   Gusts: NA
Location:  48.63°N, 112.33°W
Report Text: KCTB 281356Z AUTO 35010KT 10SM CLR M01/M04 A3010 RMK AO2 SLP209 T10111044
Loading
Personal Weather Stations






























Interactive Weather Map New forecast layout! Learn more

10-Day Weather Forecast

Advertisements
Track Severe Weather on mobile